sensor_id;sensor_type;location;lat;lon;timestamp;P1;durP1;ratioP1;P2;durP2;ratioP2
52043;SDS011;38053;53.100;6.078;2023-03-03T00:01:13;98.03;;;19.13;;
52043;SDS011;38053;53.100;6.078;2023-03-03T00:03:40;76.43;;;20.98;;
52043;SDS011;38053;53.100;6.078;2023-03-03T00:06:07;82.90;;;19.63;;
52043;SDS011;38053;53.100;6.078;2023-03-03T00:08:34;101.10;;;21.05;;
52043;SDS011;38053;53.100;6.078;2023-03-03T00:11:00;86.53;;;19.00;;
52043;SDS011;38053;53.100;6.078;2023-03-03T00:13:29;111.50;;;21.92;;
52043;SDS011;38053;53.100;6.078;2023-03-03T00:16:13;54.58;;;17.58;;
52043;SDS011;38053;53.100;6.078;2023-03-03T00:18:46;102.93;;;18.90;;
52043;SDS011;38053;53.100;6.078;2023-03-03T00:21:27;66.13;;;16.93;;
52043;SDS011;38053;53.100;6.078;2023-03-03T00:24:14;91.63;;;17.70;;
52043;SDS011;38053;53.100;6.078;2023-03-03T00:26:49;114.95;;;17.38;;
52043;SDS011;38053;53.100;6.078;2023-03-03T00:29:25;74.38;;;14.60;;
52043;SDS011;38053;53.100;6.078;2023-03-03T00:34:51;129.63;;;18.00;;
52043;SDS011;38053;53.100;6.078;2023-03-03T00:37:32;271.45;;;22.42;;
52043;SDS011;38053;53.100;6.078;2023-03-03T00:40:18;223.00;;;23.13;;
52043;SDS011;38053;53.100;6.078;2023-03-03T00:43:23;196.13;;;23.27;;
52043;SDS011;38053;53.100;6.078;2023-03-03T00:45:53;141.13;;;18.55;;
52043;SDS011;38053;53.100;6.078;2023-03-03T00:48:31;159.98;;;20.10;;
52043;SDS011;38053;53.100;6.078;2023-03-03T00:51:48;90.55;;;17.05;;
52043;SDS011;38053;53.100;6.078;2023-03-03T00:53:59;164.50;;;21.02;;
52043;SDS011;38053;53.100;6.078;2023-03-03T00:56:25;91.70;;;16.10;;
52043;SDS011;38053;53.100;6.078;2023-03-03T00:58:51;191.75;;;23.20;;
52043;SDS011;38053;53.100;6.078;2023-03-03T01:01:18;144.23;;;18.77;;
52043;SDS011;38053;53.100;6.078;2023-03-03T01:03:44;124.57;;;17.08;;
52043;SDS011;38053;53.100;6.078;2023-03-03T01:06:10;160.20;;;20.00;;
52043;SDS011;38053;53.100;6.078;2023-03-03T01:08:37;172.02;;;20.52;;
52043;SDS011;38053;53.100;6.078;2023-03-03T01:11:04;209.82;;;22.92;;
52043;SDS011;38053;53.100;6.078;2023-03-03T01:13:40;125.05;;;18.45;;
52043;SDS011;38053;53.100;6.078;2023-03-03T01:16:08;116.35;;;15.75;;
52043;SDS011;38053;53.100;6.078;2023-03-03T01:18:35;137.55;;;16.90;;
52043;SDS011;38053;53.100;6.078;2023-03-03T01:21:01;128.20;;;19.08;;
52043;SDS011;38053;53.100;6.078;2023-03-03T01:23:28;131.55;;;15.57;;
52043;SDS011;38053;53.100;6.078;2023-03-03T01:25:54;152.40;;;18.73;;
52043;SDS011;38053;53.100;6.078;2023-03-03T01:28:20;92.93;;;14.88;;
52043;SDS011;38053;53.100;6.078;2023-03-03T01:30:47;114.68;;;16.67;;
52043;SDS011;38053;53.100;6.078;2023-03-03T01:33:13;120.38;;;15.23;;
52043;SDS011;38053;53.100;6.078;2023-03-03T01:35:42;99.88;;;13.68;;
52043;SDS011;38053;53.100;6.078;2023-03-03T01:38:15;101.15;;;14.40;;
52043;SDS011;38053;53.100;6.078;2023-03-03T01:40:48;64.68;;;12.07;;
52043;SDS011;38053;53.100;6.078;2023-03-03T01:43:18;58.28;;;11.20;;
52043;SDS011;38053;53.100;6.078;2023-03-03T01:46:18;55.70;;;11.35;;
52043;SDS011;38053;53.100;6.078;2023-03-03T01:48:37;100.78;;;12.85;;
52043;SDS011;38053;53.100;6.078;2023-03-03T01:53:49;44.55;;;9.65;;
52043;SDS011;38053;53.100;6.078;2023-03-03T01:56:18;44.35;;;9.82;;
52043;SDS011;38053;53.100;6.078;2023-03-03T01:58:49;45.00;;;9.75;;
52043;SDS011;38053;53.100;6.078;2023-03-03T02:01:18;41.15;;;11.05;;
52043;SDS011;38053;53.100;6.078;2023-03-03T02:03:47;53.97;;;10.57;;
52043;SDS011;38053;53.100;6.078;2023-03-03T02:06:14;69.55;;;11.80;;
52043;SDS011;38053;53.100;6.078;2023-03-03T02:11:35;76.53;;;12.40;;
52043;SDS011;38053;53.100;6.078;2023-03-03T02:14:04;78.25;;;13.35;;
52043;SDS011;38053;53.100;6.078;2023-03-03T02:16:30;75.57;;;12.18;;
52043;SDS011;38053;53.100;6.078;2023-03-03T02:18:56;60.20;;;11.98;;
52043;SDS011;38053;53.100;6.078;2023-03-03T02:21:22;63.88;;;12.70;;
52043;SDS011;38053;53.100;6.078;2023-03-03T02:23:54;60.70;;;12.55;;
52043;SDS011;38053;53.100;6.078;2023-03-03T02:26:28;55.25;;;12.27;;
52043;SDS011;38053;53.100;6.078;2023-03-03T02:28:55;43.60;;;13.20;;
52043;SDS011;38053;53.100;6.078;2023-03-03T02:31:22;66.35;;;12.85;;
52043;SDS011;38053;53.100;6.078;2023-03-03T02:33:50;49.83;;;12.63;;
52043;SDS011;38053;53.100;6.078;2023-03-03T02:36:25;59.92;;;11.82;;
52043;SDS011;38053;53.100;6.078;2023-03-03T02:41:50;32.15;;;12.27;;
52043;SDS011;38053;53.100;6.078;2023-03-03T02:44:31;28.58;;;11.80;;
52043;SDS011;38053;53.100;6.078;2023-03-03T02:46:58;24.95;;;10.93;;
52043;SDS011;38053;53.100;6.078;2023-03-03T02:49:25;26.02;;;12.73;;
52043;SDS011;38053;53.100;6.078;2023-03-03T02:51:53;28.85;;;13.48;;
52043;SDS011;38053;53.100;6.078;2023-03-03T02:54:20;23.45;;;12.02;;
52043;SDS011;38053;53.100;6.078;2023-03-03T02:56:50;18.33;;;12.25;;
52043;SDS011;38053;53.100;6.078;2023-03-03T02:59:19;20.38;;;12.20;;
52043;SDS011;38053;53.100;6.078;2023-03-03T03:01:45;20.85;;;13.38;;
52043;SDS011;38053;53.100;6.078;2023-03-03T03:04:13;20.13;;;11.82;;
52043;SDS011;38053;53.100;6.078;2023-03-03T03:06:46;25.00;;;12.35;;
52043;SDS011;38053;53.100;6.078;2023-03-03T03:09:13;18.63;;;11.60;;
52043;SDS011;38053;53.100;6.078;2023-03-03T03:11:40;19.08;;;11.82;;
52043;SDS011;38053;53.100;6.078;2023-03-03T03:14:10;19.15;;;11.90;;
52043;SDS011;38053;53.100;6.078;2023-03-03T03:16:37;20.65;;;12.38;;
52043;SDS011;38053;53.100;6.078;2023-03-03T03:19:03;18.08;;;11.82;;
52043;SDS011;38053;53.100;6.078;2023-03-03T03:21:30;17.10;;;11.13;;
52043;SDS011;38053;53.100;6.078;2023-03-03T03:23:56;18.58;;;12.88;;
52043;SDS011;38053;53.100;6.078;2023-03-03T03:26:22;20.75;;;12.15;;
52043;SDS011;38053;53.100;6.078;2023-03-03T03:28:49;17.73;;;10.32;;
52043;SDS011;38053;53.100;6.078;2023-03-03T03:31:18;20.42;;;11.82;;
52043;SDS011;38053;53.100;6.078;2023-03-03T03:33:44;17.70;;;11.48;;
52043;SDS011;38053;53.100;6.078;2023-03-03T03:36:10;18.98;;;11.55;;
52043;SDS011;38053;53.100;6.078;2023-03-03T03:38:38;17.23;;;11.05;;
52043;SDS011;38053;53.100;6.078;2023-03-03T03:41:04;18.88;;;11.73;;
52043;SDS011;38053;53.100;6.078;2023-03-03T03:43:30;15.90;;;10.73;;
52043;SDS011;38053;53.100;6.078;2023-03-03T03:45:56;17.10;;;10.95;;
52043;SDS011;38053;53.100;6.078;2023-03-03T03:48:22;18.35;;;11.48;;
52043;SDS011;38053;53.100;6.078;2023-03-03T03:50:48;16.13;;;10.20;;
52043;SDS011;38053;53.100;6.078;2023-03-03T03:53:15;20.27;;;13.27;;
52043;SDS011;38053;53.100;6.078;2023-03-03T03:55:41;16.80;;;10.70;;
52043;SDS011;38053;53.100;6.078;2023-03-03T03:58:10;23.70;;;10.30;;
52043;SDS011;38053;53.100;6.078;2023-03-03T04:00:39;15.40;;;10.25;;
52043;SDS011;38053;53.100;6.078;2023-03-03T04:03:06;15.93;;;10.25;;
52043;SDS011;38053;53.100;6.078;2023-03-03T04:05:32;14.55;;;9.20;;
52043;SDS011;38053;53.100;6.078;2023-03-03T04:07:57;16.05;;;9.50;;
52043;SDS011;38053;53.100;6.078;2023-03-03T04:10:23;14.68;;;9.70;;
52043;SDS011;38053;53.100;6.078;2023-03-03T04:12:49;14.32;;;9.40;;
52043;SDS011;38053;53.100;6.078;2023-03-03T04:15:14;13.75;;;9.63;;
52043;SDS011;38053;53.100;6.078;2023-03-03T04:17:41;16.42;;;10.38;;
52043;SDS011;38053;53.100;6.078;2023-03-03T04:20:09;13.63;;;9.43;;
52043;SDS011;38053;53.100;6.078;2023-03-03T04:22:37;14.13;;;9.30;;
52043;SDS011;38053;53.100;6.078;2023-03-03T04:25:03;13.30;;;8.25;;
52043;SDS011;38053;53.100;6.078;2023-03-03T04:27:31;16.58;;;10.70;;
52043;SDS011;38053;53.100;6.078;2023-03-03T04:29:59;14.88;;;9.32;;
52043;SDS011;38053;53.100;6.078;2023-03-03T04:32:26;14.43;;;10.05;;
52043;SDS011;38053;53.100;6.078;2023-03-03T04:34:54;17.77;;;9.00;;
52043;SDS011;38053;53.100;6.078;2023-03-03T04:37:20;13.80;;;9.30;;
52043;SDS011;38053;53.100;6.078;2023-03-03T04:39:47;14.88;;;9.50;;
52043;SDS011;38053;53.100;6.078;2023-03-03T04:42:15;13.57;;;8.95;;
52043;SDS011;38053;53.100;6.078;2023-03-03T04:44:41;14.73;;;9.90;;
52043;SDS011;38053;53.100;6.078;2023-03-03T04:47:10;14.10;;;9.80;;
52043;SDS011;38053;53.100;6.078;2023-03-03T04:49:36;14.30;;;9.13;;
52043;SDS011;38053;53.100;6.078;2023-03-03T04:52:02;14.90;;;9.68;;
52043;SDS011;38053;53.100;6.078;2023-03-03T04:54:28;13.52;;;8.93;;
52043;SDS011;38053;53.100;6.078;2023-03-03T04:56:57;16.17;;;10.48;;
52043;SDS011;38053;53.100;6.078;2023-03-03T04:59:22;13.23;;;8.98;;
52043;SDS011;38053;53.100;6.078;2023-03-03T05:01:48;15.02;;;9.50;;
52043;SDS011;38053;53.100;6.078;2023-03-03T05:04:17;14.20;;;8.98;;
52043;SDS011;38053;53.100;6.078;2023-03-03T05:06:43;14.77;;;9.73;;
52043;SDS011;38053;53.100;6.078;2023-03-03T05:09:09;15.13;;;9.63;;
52043;SDS011;38053;53.100;6.078;2023-03-03T05:11:35;14.65;;;9.15;;
52043;SDS011;38053;53.100;6.078;2023-03-03T05:14:01;14.93;;;10.82;;
52043;SDS011;38053;53.100;6.078;2023-03-03T05:16:28;13.40;;;9.18;;
52043;SDS011;38053;53.100;6.078;2023-03-03T05:18:53;13.93;;;8.23;;
52043;SDS011;38053;53.100;6.078;2023-03-03T05:21:19;14.63;;;9.40;;
52043;SDS011;38053;53.100;6.078;2023-03-03T05:23:45;18.83;;;8.50;;
52043;SDS011;38053;53.100;6.078;2023-03-03T05:26:12;12.63;;;8.43;;
52043;SDS011;38053;53.100;6.078;2023-03-03T05:28:38;13.82;;;9.75;;
52043;SDS011;38053;53.100;6.078;2023-03-03T05:31:07;13.70;;;8.93;;
52043;SDS011;38053;53.100;6.078;2023-03-03T05:33:33;14.80;;;9.10;;
52043;SDS011;38053;53.100;6.078;2023-03-03T05:36:00;12.75;;;8.95;;
52043;SDS011;38053;53.100;6.078;2023-03-03T05:38:26;14.13;;;8.35;;
52043;SDS011;38053;53.100;6.078;2023-03-03T05:40:51;15.48;;;8.63;;
52043;SDS011;38053;53.100;6.078;2023-03-03T05:43:18;19.27;;;8.27;;
52043;SDS011;38053;53.100;6.078;2023-03-03T05:45:55;10.90;;;7.28;;
52043;SDS011;38053;53.100;6.078;2023-03-03T05:48:23;16.35;;;9.55;;
52043;SDS011;38053;53.100;6.078;2023-03-03T05:50:51;15.00;;;9.18;;
52043;SDS011;38053;53.100;6.078;2023-03-03T05:53:16;13.00;;;9.10;;
52043;SDS011;38053;53.100;6.078;2023-03-03T05:55:42;13.38;;;8.05;;
52043;SDS011;38053;53.100;6.078;2023-03-03T05:58:08;21.05;;;9.20;;
52043;SDS011;38053;53.100;6.078;2023-03-03T06:00:37;13.07;;;8.40;;
52043;SDS011;38053;53.100;6.078;2023-03-03T06:03:03;14.40;;;9.45;;
52043;SDS011;38053;53.100;6.078;2023-03-03T06:05:28;14.00;;;9.30;;
52043;SDS011;38053;53.100;6.078;2023-03-03T06:07:54;12.57;;;8.00;;
52043;SDS011;38053;53.100;6.078;2023-03-03T06:10:20;17.05;;;9.13;;
52043;SDS011;38053;53.100;6.078;2023-03-03T06:12:48;15.68;;;8.90;;
52043;SDS011;38053;53.100;6.078;2023-03-03T06:15:14;14.63;;;9.35;;
52043;SDS011;38053;53.100;6.078;2023-03-03T06:17:40;19.85;;;8.60;;
52043;SDS011;38053;53.100;6.078;2023-03-03T06:20:08;12.15;;;8.02;;
52043;SDS011;38053;53.100;6.078;2023-03-03T06:22:37;12.95;;;8.30;;
52043;SDS011;38053;53.100;6.078;2023-03-03T06:25:04;15.05;;;10.23;;
52043;SDS011;38053;53.100;6.078;2023-03-03T06:27:31;17.50;;;8.30;;
52043;SDS011;38053;53.100;6.078;2023-03-03T06:29:56;14.70;;;8.35;;
52043;SDS011;38053;53.100;6.078;2023-03-03T06:32:22;19.52;;;10.68;;
52043;SDS011;38053;53.100;6.078;2023-03-03T06:34:48;13.02;;;8.32;;
52043;SDS011;38053;53.100;6.078;2023-03-03T06:37:13;25.42;;;9.18;;
52043;SDS011;38053;53.100;6.078;2023-03-03T06:39:40;14.60;;;8.48;;
52043;SDS011;38053;53.100;6.078;2023-03-03T06:42:07;15.55;;;8.23;;
52043;SDS011;38053;53.100;6.078;2023-03-03T06:44:34;18.65;;;9.02;;
52043;SDS011;38053;53.100;6.078;2023-03-03T06:47:00;19.48;;;9.90;;
52043;SDS011;38053;53.100;6.078;2023-03-03T06:49:26;14.82;;;8.82;;
52043;SDS011;38053;53.100;6.078;2023-03-03T06:51:52;12.55;;;8.25;;
52043;SDS011;38053;53.100;6.078;2023-03-03T06:54:19;16.30;;;9.23;;
52043;SDS011;38053;53.100;6.078;2023-03-03T06:56:48;17.45;;;9.85;;
52043;SDS011;38053;53.100;6.078;2023-03-03T06:59:19;15.32;;;9.52;;
52043;SDS011;38053;53.100;6.078;2023-03-03T07:01:46;15.30;;;8.93;;
52043;SDS011;38053;53.100;6.078;2023-03-03T07:06:53;16.20;;;9.32;;
52043;SDS011;38053;53.100;6.078;2023-03-03T07:09:23;14.63;;;9.38;;
52043;SDS011;38053;53.100;6.078;2023-03-03T07:11:55;18.77;;;9.60;;
52043;SDS011;38053;53.100;6.078;2023-03-03T07:14:27;14.55;;;9.70;;
52043;SDS011;38053;53.100;6.078;2023-03-03T07:17:00;20.42;;;10.05;;
52043;SDS011;38053;53.100;6.078;2023-03-03T07:19:30;20.02;;;10.75;;
52043;SDS011;38053;53.100;6.078;2023-03-03T07:22:07;17.77;;;11.05;;
52043;SDS011;38053;53.100;6.078;2023-03-03T07:24:56;23.63;;;12.50;;
52043;SDS011;38053;53.100;6.078;2023-03-03T07:27:32;32.10;;;12.23;;
52043;SDS011;38053;53.100;6.078;2023-03-03T07:30:12;25.73;;;12.95;;
52043;SDS011;38053;53.100;6.078;2023-03-03T07:32:48;21.77;;;12.05;;
52043;SDS011;38053;53.100;6.078;2023-03-03T07:38:16;21.20;;;11.35;;
52043;SDS011;38053;53.100;6.078;2023-03-03T07:41:16;17.38;;;10.70;;
52043;SDS011;38053;53.100;6.078;2023-03-03T07:43:51;18.77;;;10.32;;
52043;SDS011;38053;53.100;6.078;2023-03-03T07:51:48;19.08;;;10.82;;
52043;SDS011;38053;53.100;6.078;2023-03-03T07:56:46;16.98;;;9.63;;
52043;SDS011;38053;53.100;6.078;2023-03-03T07:59:16;19.63;;;11.38;;
52043;SDS011;38053;53.100;6.078;2023-03-03T08:01:49;20.00;;;10.57;;
52043;SDS011;38053;53.100;6.078;2023-03-03T08:04:27;17.75;;;9.40;;
52043;SDS011;38053;53.100;6.078;2023-03-03T08:07:08;17.85;;;9.85;;
52043;SDS011;38053;53.100;6.078;2023-03-03T08:09:41;17.02;;;8.95;;
52043;SDS011;38053;53.100;6.078;2023-03-03T08:14:41;17.23;;;8.52;;
52043;SDS011;38053;53.100;6.078;2023-03-03T08:17:13;19.15;;;7.72;;
52043;SDS011;38053;53.100;6.078;2023-03-03T08:19:45;16.17;;;7.82;;
52043;SDS011;38053;53.100;6.078;2023-03-03T08:22:16;18.17;;;9.18;;
52043;SDS011;38053;53.100;6.078;2023-03-03T08:24:45;15.73;;;7.28;;
52043;SDS011;38053;53.100;6.078;2023-03-03T08:27:15;19.60;;;8.10;;
52043;SDS011;38053;53.100;6.078;2023-03-03T08:29:41;14.65;;;6.80;;
52043;SDS011;38053;53.100;6.078;2023-03-03T08:32:06;14.63;;;5.63;;
52043;SDS011;38053;53.100;6.078;2023-03-03T08:34:32;16.45;;;5.18;;
52043;SDS011;38053;53.100;6.078;2023-03-03T08:36:58;10.57;;;3.63;;
52043;SDS011;38053;53.100;6.078;2023-03-03T08:39:23;8.25;;;4.60;;
52043;SDS011;38053;53.100;6.078;2023-03-03T08:41:49;16.80;;;4.97;;
52043;SDS011;38053;53.100;6.078;2023-03-03T08:44:16;11.75;;;4.43;;
52043;SDS011;38053;53.100;6.078;2023-03-03T08:46:44;10.52;;;4.50;;
52043;SDS011;38053;53.100;6.078;2023-03-03T08:49:10;11.20;;;4.00;;
52043;SDS011;38053;53.100;6.078;2023-03-03T08:51:37;9.45;;;3.50;;
52043;SDS011;38053;53.100;6.078;2023-03-03T08:54:02;12.02;;;4.65;;
52043;SDS011;38053;53.100;6.078;2023-03-03T08:56:29;11.52;;;4.63;;
52043;SDS011;38053;53.100;6.078;2023-03-03T08:58:55;8.52;;;3.45;;
52043;SDS011;38053;53.100;6.078;2023-03-03T09:01:21;9.18;;;3.15;;
52043;SDS011;38053;53.100;6.078;2023-03-03T09:03:47;12.18;;;3.60;;
52043;SDS011;38053;53.100;6.078;2023-03-03T09:06:21;22.35;;;3.63;;
52043;SDS011;38053;53.100;6.078;2023-03-03T09:08:47;7.75;;;3.55;;
52043;SDS011;38053;53.100;6.078;2023-03-03T09:11:18;14.55;;;3.38;;
52043;SDS011;38053;53.100;6.078;2023-03-03T09:14:01;6.78;;;3.13;;
52043;SDS011;38053;53.100;6.078;2023-03-03T09:16:49;4.32;;;2.35;;
52043;SDS011;38053;53.100;6.078;2023-03-03T09:19:22;6.78;;;2.28;;
52043;SDS011;38053;53.100;6.078;2023-03-03T09:22:00;7.78;;;2.85;;
52043;SDS011;38053;53.100;6.078;2023-03-03T09:24:36;7.80;;;2.03;;
52043;SDS011;38053;53.100;6.078;2023-03-03T09:27:06;8.75;;;1.88;;
52043;SDS011;38053;53.100;6.078;2023-03-03T09:29:49;9.60;;;2.08;;
52043;SDS011;38053;53.100;6.078;2023-03-03T09:32:36;4.90;;;1.60;;
52043;SDS011;38053;53.100;6.078;2023-03-03T09:38:40;5.72;;;1.20;;
52043;SDS011;38053;53.100;6.078;2023-03-03T09:49:56;5.07;;;0.93;;
52043;SDS011;38053;53.100;6.078;2023-03-03T09:52:36;3.73;;;1.40;;
52043;SDS011;38053;53.100;6.078;2023-03-03T09:55:23;3.00;;;0.68;;
52043;SDS011;38053;53.100;6.078;2023-03-03T10:06:48;5.55;;;1.05;;
52043;SDS011;38053;53.100;6.078;2023-03-03T10:12:37;5.60;;;0.90;;
52043;SDS011;38053;53.100;6.078;2023-03-03T10:17:48;2.88;;;0.82;;
52043;SDS011;38053;53.100;6.078;2023-03-03T10:20:52;6.97;;;1.02;;
52043;SDS011;38053;53.100;6.078;2023-03-03T10:23:45;11.65;;;1.42;;
52043;SDS011;38053;53.100;6.078;2023-03-03T10:29:11;3.33;;;0.90;;
52043;SDS011;38053;53.100;6.078;2023-03-03T10:37:25;6.57;;;1.63;;
52043;SDS011;38053;53.100;6.078;2023-03-03T10:45:41;2.05;;;0.77;;
52043;SDS011;38053;53.100;6.078;2023-03-03T11:02:49;6.22;;;1.23;;
52043;SDS011;38053;53.100;6.078;2023-03-03T11:05:20;3.78;;;0.90;;
52043;SDS011;38053;53.100;6.078;2023-03-03T11:08:18;2.03;;;0.63;;
52043;SDS011;38053;53.100;6.078;2023-03-03T11:16:33;3.03;;;1.08;;
52043;SDS011;38053;53.100;6.078;2023-03-03T11:25:49;7.82;;;1.42;;
52043;SDS011;38053;53.100;6.078;2023-03-03T11:28:32;3.10;;;1.45;;
52043;SDS011;38053;53.100;6.078;2023-03-03T11:36:56;4.03;;;1.17;;
52043;SDS011;38053;53.100;6.078;2023-03-03T11:39:31;7.18;;;1.50;;
52043;SDS011;38053;53.100;6.078;2023-03-03T11:44:34;4.05;;;1.30;;
52043;SDS011;38053;53.100;6.078;2023-03-03T11:47:25;7.55;;;1.23;;
52043;SDS011;38053;53.100;6.078;2023-03-03T11:50:11;9.15;;;1.67;;
52043;SDS011;38053;53.100;6.078;2023-03-03T11:53:08;8.45;;;1.83;;
52043;SDS011;38053;53.100;6.078;2023-03-03T11:56:02;8.13;;;2.00;;
52043;SDS011;38053;53.100;6.078;2023-03-03T11:59:01;8.43;;;1.23;;
52043;SDS011;38053;53.100;6.078;2023-03-03T12:01:55;6.07;;;1.35;;
52043;SDS011;38053;53.100;6.078;2023-03-03T12:10:13;4.32;;;1.20;;
52043;SDS011;38053;53.100;6.078;2023-03-03T12:13:04;8.55;;;3.08;;
52043;SDS011;38053;53.100;6.078;2023-03-03T12:21:39;7.97;;;2.28;;
52043;SDS011;38053;53.100;6.078;2023-03-03T12:24:22;10.20;;;1.48;;
52043;SDS011;38053;53.100;6.078;2023-03-03T12:27:20;7.85;;;1.30;;
52043;SDS011;38053;53.100;6.078;2023-03-03T12:35:52;15.38;;;2.65;;
52043;SDS011;38053;53.100;6.078;2023-03-03T12:41:29;5.75;;;1.40;;
52043;SDS011;38053;53.100;6.078;2023-03-03T12:46:58;9.93;;;1.60;;
52043;SDS011;38053;53.100;6.078;2023-03-03T12:52:23;5.50;;;1.48;;
52043;SDS011;38053;53.100;6.078;2023-03-03T12:55:04;12.55;;;2.58;;
52043;SDS011;38053;53.100;6.078;2023-03-03T13:03:35;7.93;;;1.50;;
52043;SDS011;38053;53.100;6.078;2023-03-03T13:14:55;13.60;;;2.03;;
52043;SDS011;38053;53.100;6.078;2023-03-03T13:20:38;7.55;;;2.45;;
52043;SDS011;38053;53.100;6.078;2023-03-03T13:23:28;19.40;;;2.88;;
52043;SDS011;38053;53.100;6.078;2023-03-03T13:29:03;10.13;;;2.25;;
52043;SDS011;38053;53.100;6.078;2023-03-03T13:31:48;16.60;;;3.08;;
52043;SDS011;38053;53.100;6.078;2023-03-03T13:37:31;13.98;;;2.80;;
52043;SDS011;38053;53.100;6.078;2023-03-03T13:40:09;12.52;;;3.40;;
52043;SDS011;38053;53.100;6.078;2023-03-03T13:43:03;15.73;;;2.05;;
52043;SDS011;38053;53.100;6.078;2023-03-03T13:45:55;13.25;;;3.50;;
52043;SDS011;38053;53.100;6.078;2023-03-03T13:57:16;24.42;;;3.83;;
52043;SDS011;38053;53.100;6.078;2023-03-03T14:00:00;17.58;;;4.47;;
52043;SDS011;38053;53.100;6.078;2023-03-03T14:03:15;26.13;;;4.38;;
52043;SDS011;38053;53.100;6.078;2023-03-03T14:05:39;22.42;;;4.55;;
52043;SDS011;38053;53.100;6.078;2023-03-03T14:13:52;26.73;;;4.70;;
52043;SDS011;38053;53.100;6.078;2023-03-03T14:16:42;25.88;;;5.10;;
52043;SDS011;38053;53.100;6.078;2023-03-03T14:19:33;23.05;;;4.00;;
52043;SDS011;38053;53.100;6.078;2023-03-03T14:25:12;20.00;;;3.95;;
52043;SDS011;38053;53.100;6.078;2023-03-03T14:30:23;27.35;;;6.50;;
52043;SDS011;38053;53.100;6.078;2023-03-03T14:33:01;26.10;;;6.50;;
52043;SDS011;38053;53.100;6.078;2023-03-03T14:35:35;22.63;;;4.20;;
52043;SDS011;38053;53.100;6.078;2023-03-03T14:40:40;20.50;;;4.25;;
52043;SDS011;38053;53.100;6.078;2023-03-03T14:43:25;22.57;;;4.53;;
52043;SDS011;38053;53.100;6.078;2023-03-03T14:48:51;22.75;;;6.35;;
52043;SDS011;38053;53.100;6.078;2023-03-03T14:53:53;20.48;;;4.10;;
52043;SDS011;38053;53.100;6.078;2023-03-03T14:56:28;18.38;;;3.17;;
52043;SDS011;38053;53.100;6.078;2023-03-03T15:01:43;30.17;;;5.50;;
52043;SDS011;38053;53.100;6.078;2023-03-03T15:06:43;24.67;;;4.57;;
52043;SDS011;38053;53.100;6.078;2023-03-03T15:09:26;26.65;;;4.10;;
52043;SDS011;38053;53.100;6.078;2023-03-03T15:14:52;36.92;;;4.22;;
52043;SDS011;38053;53.100;6.078;2023-03-03T15:17:36;17.90;;;3.33;;
52043;SDS011;38053;53.100;6.078;2023-03-03T15:23:17;20.92;;;4.18;;
52043;SDS011;38053;53.100;6.078;2023-03-03T15:34:20;21.42;;;4.40;;
52043;SDS011;38053;53.100;6.078;2023-03-03T15:36:59;24.27;;;5.28;;
52043;SDS011;38053;53.100;6.078;2023-03-03T16:02:21;26.50;;;6.13;;
52043;SDS011;38053;53.100;6.078;2023-03-03T16:06:14;24.15;;;5.38;;
52043;SDS011;38053;53.100;6.078;2023-03-03T16:08:41;21.23;;;5.07;;
52043;SDS011;38053;53.100;6.078;2023-03-03T16:11:25;25.42;;;5.38;;
52043;SDS011;38053;53.100;6.078;2023-03-03T16:14:11;21.83;;;4.03;;
52043;SDS011;38053;53.100;6.078;2023-03-03T16:20:12;25.83;;;3.85;;
52043;SDS011;38053;53.100;6.078;2023-03-03T16:23:07;27.63;;;5.90;;
52043;SDS011;38053;53.100;6.078;2023-03-03T16:31:20;25.17;;;6.00;;
52043;SDS011;38053;53.100;6.078;2023-03-03T16:33:52;30.92;;;4.47;;
52043;SDS011;38053;53.100;6.078;2023-03-03T16:36:28;17.83;;;3.55;;
52043;SDS011;38053;53.100;6.078;2023-03-03T16:39:19;21.73;;;3.25;;
52043;SDS011;38053;53.100;6.078;2023-03-03T16:42:12;23.63;;;5.00;;
52043;SDS011;38053;53.100;6.078;2023-03-03T16:51:13;36.58;;;5.80;;
52043;SDS011;38053;53.100;6.078;2023-03-03T16:54:08;19.55;;;4.07;;
52043;SDS011;38053;53.100;6.078;2023-03-03T16:56:43;25.05;;;4.20;;
52043;SDS011;38053;53.100;6.078;2023-03-03T17:04:55;22.90;;;4.38;;
52043;SDS011;38053;53.100;6.078;2023-03-03T17:07:42;22.70;;;4.60;;
52043;SDS011;38053;53.100;6.078;2023-03-03T17:10:29;27.80;;;6.38;;
52043;SDS011;38053;53.100;6.078;2023-03-03T17:16:04;31.63;;;6.50;;
52043;SDS011;38053;53.100;6.078;2023-03-03T17:18:55;18.15;;;3.80;;
52043;SDS011;38053;53.100;6.078;2023-03-03T17:27:48;37.88;;;5.13;;
52043;SDS011;38053;53.100;6.078;2023-03-03T17:33:25;25.40;;;7.40;;
52043;SDS011;38053;53.100;6.078;2023-03-03T17:36:17;35.60;;;6.38;;
52043;SDS011;38053;53.100;6.078;2023-03-03T17:39:12;29.15;;;5.53;;
52043;SDS011;38053;53.100;6.078;2023-03-03T17:42:08;32.20;;;6.35;;
52043;SDS011;38053;53.100;6.078;2023-03-03T17:53:47;63.83;;;20.02;;
52043;SDS011;38053;53.100;6.078;2023-03-03T17:55:56;43.13;;;14.40;;
52043;SDS011;38053;53.100;6.078;2023-03-03T17:58:41;28.40;;;5.72;;
52043;SDS011;38053;53.100;6.078;2023-03-03T18:16:24;29.80;;;5.45;;
52043;SDS011;38053;53.100;6.078;2023-03-03T18:22:32;38.75;;;6.60;;
52043;SDS011;38053;53.100;6.078;2023-03-03T18:25:07;27.00;;;6.07;;
52043;SDS011;38053;53.100;6.078;2023-03-03T18:27:39;31.55;;;4.78;;
52043;SDS011;38053;53.100;6.078;2023-03-03T18:33:40;27.65;;;6.28;;
52043;SDS011;38053;53.100;6.078;2023-03-03T18:38:56;19.15;;;5.32;;
52043;SDS011;38053;53.100;6.078;2023-03-03T18:41:28;26.58;;;5.30;;
52043;SDS011;38053;53.100;6.078;2023-03-03T18:44:22;30.75;;;6.57;;
52043;SDS011;38053;53.100;6.078;2023-03-03T18:46:54;41.45;;;6.05;;
52043;SDS011;38053;53.100;6.078;2023-03-03T18:55:39;26.75;;;5.20;;
52043;SDS011;38053;53.100;6.078;2023-03-03T19:00:41;35.38;;;7.57;;
52043;SDS011;38053;53.100;6.078;2023-03-03T19:05:58;25.95;;;4.85;;
52043;SDS011;38053;53.100;6.078;2023-03-03T19:08:28;31.60;;;5.45;;
52043;SDS011;38053;53.100;6.078;2023-03-03T19:16:56;25.60;;;4.30;;
52043;SDS011;38053;53.100;6.078;2023-03-03T19:19:24;30.58;;;4.93;;
52043;SDS011;38053;53.100;6.078;2023-03-03T19:31:00;38.38;;;6.10;;
52043;SDS011;38053;53.100;6.078;2023-03-03T19:33:49;20.58;;;4.68;;
52043;SDS011;38053;53.100;6.078;2023-03-03T19:41:55;22.40;;;4.90;;
52043;SDS011;38053;53.100;6.078;2023-03-03T19:44:50;29.42;;;5.95;;
52043;SDS011;38053;53.100;6.078;2023-03-03T19:59:10;28.20;;;4.72;;
52043;SDS011;38053;53.100;6.078;2023-03-03T20:07:30;24.25;;;5.13;;
52043;SDS011;38053;53.100;6.078;2023-03-03T20:21:41;21.92;;;3.95;;
52043;SDS011;38053;53.100;6.078;2023-03-03T20:30:31;36.03;;;6.05;;
52043;SDS011;38053;53.100;6.078;2023-03-03T20:50:34;24.33;;;5.05;;
52043;SDS011;38053;53.100;6.078;2023-03-03T20:56:46;17.25;;;4.72;;
52043;SDS011;38053;53.100;6.078;2023-03-03T20:59:30;23.98;;;4.65;;
52043;SDS011;38053;53.100;6.078;2023-03-03T21:02:13;19.98;;;3.20;;
52043;SDS011;38053;53.100;6.078;2023-03-03T21:05:05;23.17;;;4.45;;
52043;SDS011;38053;53.100;6.078;2023-03-03T21:07:49;23.40;;;4.45;;
52043;SDS011;38053;53.100;6.078;2023-03-03T21:10:17;23.30;;;4.90;;
52043;SDS011;38053;53.100;6.078;2023-03-03T21:12:48;16.08;;;3.42;;
52043;SDS011;38053;53.100;6.078;2023-03-03T21:15:20;12.57;;;3.30;;
52043;SDS011;38053;53.100;6.078;2023-03-03T21:17:52;16.70;;;3.53;;
52043;SDS011;38053;53.100;6.078;2023-03-03T21:20:23;24.05;;;4.35;;
52043;SDS011;38053;53.100;6.078;2023-03-03T21:22:50;21.15;;;4.05;;
52043;SDS011;38053;53.100;6.078;2023-03-03T21:25:58;20.90;;;3.38;;
52043;SDS011;38053;53.100;6.078;2023-03-03T21:28:15;19.45;;;3.40;;